Time;durP1;ratioP1;P1;durP2;ratioP2;P2;SDS_P1;SDS_P2;PMS_P1;PMS_P2;Temp;Humidity;BMP_temperature;BMP_pressure;BME280_temperature;BME280_humidity;BME280_pressure;Samples;Min_cycle;Max_cycle;Signal;HPM_P1;HPM_P2
2022/03/15 00:00:40;;;;;;;7.97;5.57;;;6.90;99.90;6.70;101914.00;;;;4955320;28;109455;-62
2022/03/15 00:03:06;;;;;;;7.53;4.93;;;6.80;99.90;6.70;101916.00;;;;4955694;28;108484;-62
2022/03/15 00:05:32;;;;;;;5.30;4.80;;;7.00;99.90;6.70;101903.00;;;;4940161;28;89596;-62
2022/03/15 00:07:57;;;;;;;7.73;5.00;;;6.80;99.90;6.70;101908.00;;;;4941043;28;100153;-62
2022/03/15 00:10:24;;;;;;;11.93;5.17;;;6.80;99.90;6.70;101902.00;;;;4957044;28;87788;-64
2022/03/15 00:12:51;;;;;;;6.73;4.23;;;7.10;99.90;6.70;101902.00;;;;4968408;28;87644;-63
2022/03/15 00:15:18;;;;;;;7.00;5.03;;;6.80;99.90;6.60;101898.00;;;;4956693;28;89433;-62
2022/03/15 00:17:44;;;;;;;10.10;5.90;;;6.90;99.90;6.60;101895.00;;;;4955319;28;116844;-62
2022/03/15 00:20:22;;;;;;;9.60;6.03;;;6.70;99.90;6.60;101881.00;;;;4957108;28;87961;-64
2022/03/15 00:22:49;;;;;;;7.23;4.80;;;6.70;99.90;6.50;101888.00;;;;4956755;28;87127;-62
2022/03/15 00:25:17;;;;;;;8.07;4.73;;;6.70;99.90;6.50;101892.00;;;;4957334;28;88034;-62
2022/03/15 00:27:51;;;;;;;10.33;5.20;;;6.70;99.90;6.40;101892.00;;;;4957519;28;89193;-64
2022/03/15 00:30:19;;;;;;;8.57;5.47;;;6.90;99.90;6.40;101889.00;;;;4956349;28;88542;-63
2022/03/15 00:32:45;;;;;;;5.33;4.50;;;6.60;99.90;6.30;101889.00;;;;4956942;28;87630;-63
2022/03/15 00:35:18;;;;;;;7.87;5.43;;;6.50;99.90;6.20;101881.00;;;;4956173;28;117441;-64
2022/03/15 00:37:50;;;;;;;10.33;5.27;;;6.40;99.90;6.10;101887.00;;;;4987234;28;88192;-64
2022/03/15 00:40:17;;;;;;;6.63;5.00;;;6.30;99.90;6.10;101888.00;;;;4956801;28;87823;-64
2022/03/15 00:42:53;;;;;;;7.80;4.90;;;6.30;99.90;6.00;101901.00;;;;4956372;28;90138;-63
2022/03/15 00:45:23;;;;;;;7.00;4.77;;;6.60;99.90;5.90;101904.00;;;;4956140;28;88952;-64
2022/03/15 00:47:53;;;;;;;6.77;4.37;;;6.20;99.90;5.90;101899.00;;;;4954390;28;87318;-63
2022/03/15 00:50:20;;;;;;;7.43;5.37;;;6.10;99.90;5.90;101913.00;;;;4956451;28;87797;-64
2022/03/15 00:52:47;;;;;;;6.73;4.23;;;6.50;99.90;5.80;101897.00;;;;4955612;28;90044;-64
2022/03/15 00:55:13;;;;;;;12.07;5.33;;;6.00;99.90;5.80;101901.00;;;;4955827;28;101932;-64
2022/03/15 00:57:39;;;;;;;8.23;4.80;;;6.00;99.90;5.80;101897.00;;;;4955348;28;100919;-62
2022/03/15 01:00:07;;;;;;;7.90;5.00;;;6.00;99.90;5.70;101898.00;;;;4954615;28;87831;-64
2022/03/15 01:02:34;;;;;;;8.93;5.33;;;5.90;99.90;5.70;101904.00;;;;4954597;28;87890;-64
2022/03/15 01:05:00;;;;;;;8.27;4.77;;;5.80;99.90;5.60;101900.00;;;;4945013;28;107462;-64
2022/03/15 01:07:26;;;;;;;8.53;5.03;;;5.80;99.90;5.50;101902.00;;;;4935593;28;88708;-65
2022/03/15 01:09:52;;;;;;;10.23;4.87;;;5.30;99.90;5.50;101891.00;;;;4952469;28;91870;-64
2022/03/15 01:12:17;;;;;;;6.40;4.33;;;6.20;99.90;5.40;101885.00;;;;4959760;28;87110;-64
2022/03/15 01:14:43;;;;;;;6.70;4.93;;;5.60;99.90;5.30;101880.00;;;;4955410;28;101102;-65
2022/03/15 01:17:09;;;;;;;8.77;4.87;;;6.00;99.90;5.30;101891.00;;;;4954489;28;118089;-64
2022/03/15 01:19:35;;;;;;;7.83;4.57;;;5.40;99.90;5.20;101884.00;;;;4955599;28;88798;-64
2022/03/15 01:22:01;;;;;;;7.60;4.33;;;5.60;99.90;5.10;101879.00;;;;4955167;28;98662;-64
2022/03/15 01:24:27;;;;;;;4.40;3.43;;;5.40;99.90;5.00;101874.00;;;;4954411;28;109379;-65
2022/03/15 01:26:54;;;;;;;9.70;4.93;;;5.60;99.90;4.90;101881.00;;;;4955710;28;88476;-65
2022/03/15 01:29:21;;;;;;;5.40;3.93;;;5.70;99.90;4.90;101877.00;;;;4955550;28;88050;-65
2022/03/15 01:31:47;;;;;;;9.00;5.40;;;5.10;99.90;4.80;101874.00;;;;4955594;28;87880;-64
2022/03/15 01:34:14;;;;;;;8.17;4.97;;;5.00;99.90;4.70;101879.00;;;;4955303;28;88161;-64
2022/03/15 01:36:39;;;;;;;12.10;5.33;;;5.00;99.90;4.60;101878.00;;;;4955557;28;92629;-65
2022/03/15 01:39:06;;;;;;;7.03;4.17;;;4.90;99.90;4.60;101881.00;;;;4954732;28;111323;-65
2022/03/15 01:41:39;;;;;;;8.57;5.57;;;4.80;99.90;4.50;101889.00;;;;4954442;28;110207;-65
2022/03/15 01:44:19;;;;;;;8.10;4.50;;;4.70;99.90;4.40;101889.00;;;;4953916;28;89360;-64
2022/03/15 01:46:50;;;;;;;8.27;4.50;;;4.70;99.90;4.40;101893.00;;;;4954463;28;104112;-65
2022/03/15 01:49:16;;;;;;;8.97;4.90;;;4.60;99.90;4.30;101894.00;;;;4955416;28;87835;-65
2022/03/15 01:51:43;;;;;;;4.53;3.30;;;5.00;99.90;4.20;101901.00;;;;4955611;28;87801;-65
2022/03/15 01:54:11;;;;;;;4.77;3.50;;;4.50;99.90;4.10;101891.00;;;;4955158;28;87917;-66
2022/03/15 01:56:40;;;;;;;4.93;3.63;;;4.40;99.90;4.00;101891.00;;;;4954987;28;87993;-65
2022/03/15 01:59:16;;;;;;;9.13;4.47;;;4.30;99.90;3.90;101890.00;;;;4955452;28;87777;-65
2022/03/15 02:01:43;;;;;;;9.10;5.30;;;4.20;99.90;3.90;101899.00;;;;4955823;28;87104;-66
2022/03/15 02:04:10;;;;;;;6.87;4.07;;;4.20;99.90;3.80;101899.00;;;;4981969;28;87750;-65
2022/03/15 02:06:44;;;;;;;6.20;4.43;;;4.10;99.90;3.80;101903.00;;;;4952821;28;88926;-65
2022/03/15 02:09:12;;;;;;;4.47;3.93;;;4.00;99.90;3.70;101899.00;;;;4954614;28;88854;-65
2022/03/15 02:11:43;;;;;;;8.77;4.70;;;4.00;99.90;3.70;101888.00;;;;4943429;28;87637;-65
2022/03/15 02:14:09;;;;;;;5.33;4.10;;;3.90;99.90;3.60;101898.00;;;;4965302;28;87754;-65
2022/03/15 02:16:35;;;;;;;4.93;4.23;;;3.90;99.90;3.60;101902.00;;;;4957649;28;118230;-65
2022/03/15 02:19:03;;;;;;;3.83;3.50;;;3.90;99.90;3.60;101905.00;;;;4955094;28;108826;-65
2022/03/15 02:21:29;;;;;;;6.93;4.37;;;3.80;99.90;3.60;101904.00;;;;4954641;28;87844;-66
2022/03/15 02:23:56;;;;;;;6.13;4.77;;;3.80;99.90;3.50;101913.00;;;;4956552;28;88698;-65
2022/03/15 02:26:22;;;;;;;6.00;3.90;;;3.80;99.90;3.40;101912.00;;;;4957800;28;98834;-66
2022/03/15 02:28:48;;;;;;;10.23;4.37;;;3.70;99.90;3.40;101911.00;;;;4957752;28;87734;-66
2022/03/15 02:31:15;;;;;;;5.30;3.77;;;3.60;99.90;3.30;101912.00;;;;4957424;28;108224;-65
2022/03/15 02:33:41;;;;;;;7.27;4.93;;;3.60;99.90;3.30;101910.00;;;;4957141;28;90115;-65
2022/03/15 02:36:06;;;;;;;7.17;4.30;;;3.60;99.90;3.20;101912.00;;;;4957188;28;117926;-66
2022/03/15 02:38:32;;;;;;;4.53;3.33;;;3.50;99.90;3.20;101913.00;;;;4922416;28;110849;-65
2022/03/15 02:40:58;;;;;;;5.73;3.80;;;3.50;99.90;3.10;101907.00;;;;4957692;28;107569;-65
2022/03/15 02:43:24;;;;;;;4.53;3.60;;;3.40;99.90;3.00;101910.00;;;;4957479;28;88717;-65
2022/03/15 02:45:49;;;;;;;4.03;3.63;;;3.30;99.90;3.00;101901.00;;;;4956817;28;117894;-65
2022/03/15 02:48:15;;;;;;;8.17;3.90;;;3.20;99.90;3.00;101923.00;;;;4956255;28;87924;-65
2022/03/15 02:50:41;;;;;;;6.07;4.10;;;3.30;99.90;2.90;101918.00;;;;4957790;28;109904;-66
2022/03/15 02:53:08;;;;;;;10.13;5.03;;;3.20;99.90;2.90;101918.00;;;;4956776;28;106121;-65
2022/03/15 02:55:34;;;;;;;7.43;4.07;;;3.60;99.90;2.80;101918.00;;;;4958236;28;89031;-65
2022/03/15 02:58:00;;;;;;;8.17;4.73;;;3.10;99.90;2.70;101923.00;;;;4957147;28;88652;-65
2022/03/15 03:00:27;;;;;;;6.43;4.70;;;3.00;99.90;2.70;101923.00;;;;4957920;28;87686;-66
2022/03/15 03:02:54;;;;;;;7.37;5.13;;;3.00;99.90;2.60;101921.00;;;;4957444;28;88106;-65
2022/03/15 03:05:19;;;;;;;5.73;3.70;;;2.90;99.90;2.60;101912.00;;;;4953773;28;105127;-65
2022/03/15 03:07:45;;;;;;;7.37;4.20;;;2.80;99.90;2.60;101920.00;;;;4956575;28;104853;-64
2022/03/15 03:10:12;;;;;;;4.87;3.63;;;2.80;99.90;2.50;101916.00;;;;4956938;28;88578;-65
2022/03/15 03:12:41;;;;;;;6.03;3.67;;;2.80;99.90;2.50;101903.00;;;;4968898;28;89281;-65
2022/03/15 03:15:12;;;;;;;6.67;3.90;;;2.80;99.90;2.50;101902.00;;;;4958238;28;87602;-65
2022/03/15 03:17:42;;;;;;;11.00;4.07;;;2.70;99.90;2.40;101906.00;;;;4955208;28;87795;-65
2022/03/15 03:20:13;;;;;;;2.83;2.60;;;2.90;99.90;2.40;101914.00;;;;4957648;28;87798;-65
2022/03/15 03:22:39;;;;;;;4.33;3.37;;;2.70;99.90;2.40;101912.00;;;;4956941;28;89153;-65
2022/03/15 03:25:06;;;;;;;5.10;3.83;;;2.70;99.90;2.40;101908.00;;;;4957313;28;87766;-65
2022/03/15 03:27:33;;;;;;;7.53;4.47;;;2.70;99.90;2.40;101907.00;;;;4957196;28;87593;-65
2022/03/15 03:29:59;;;;;;;11.67;4.10;;;2.60;99.90;2.40;101913.00;;;;4954247;28;108723;-65
2022/03/15 03:32:25;;;;;;;6.33;3.63;;;2.60;99.90;2.30;101920.00;;;;4957500;28;88225;-65
2022/03/15 03:34:52;;;;;;;6.37;4.33;;;2.60;99.90;2.30;101922.00;;;;4954878;28;109699;-65
2022/03/15 03:37:18;;;;;;;6.13;3.53;;;2.60;99.90;2.30;101925.00;;;;4957792;28;87776;-65
2022/03/15 03:39:44;;;;;;;6.57;4.50;;;2.60;99.90;2.20;101928.00;;;;4955289;28;87468;-65
2022/03/15 03:42:10;;;;;;;7.63;4.70;;;2.50;99.90;2.20;101923.00;;;;4957630;28;89010;-65
2022/03/15 03:44:38;;;;;;;5.63;4.10;;;2.50;99.90;2.20;101928.00;;;;4956661;28;87839;-65
2022/03/15 03:47:04;;;;;;;6.40;4.67;;;2.50;99.90;2.20;101934.00;;;;4957156;28;88701;-65
2022/03/15 03:49:31;;;;;;;6.70;4.33;;;2.40;99.90;2.10;101936.00;;;;4956115;28;97236;-65
2022/03/15 03:51:58;;;;;;;5.50;4.23;;;2.40;99.90;2.10;101942.00;;;;4957246;28;87447;-65
2022/03/15 03:54:24;;;;;;;4.53;3.60;;;2.40;99.90;2.10;101932.00;;;;4956225;28;88564;-64
2022/03/15 03:56:51;;;;;;;5.80;4.40;;;2.40;99.90;2.10;101930.00;;;;4957460;28;87825;-65
2022/03/15 03:59:17;;;;;;;5.90;4.17;;;2.40;99.90;2.10;101927.00;;;;4956431;28;100375;-65
2022/03/15 04:01:43;;;;;;;5.67;4.70;;;2.40;99.90;2.10;101923.00;;;;4956876;28;88129;-65
2022/03/15 04:04:10;;;;;;;7.77;4.33;;;2.30;99.90;2.00;101919.00;;;;4953756;28;88847;-65
2022/03/15 04:06:37;;;;;;;6.70;4.70;;;2.40;99.90;2.00;101920.00;;;;4953142;28;88048;-65
2022/03/15 04:09:04;;;;;;;9.87;5.13;;;2.90;99.90;2.00;101926.00;;;;4956392;28;102603;-65
2022/03/15 04:11:31;;;;;;;4.43;3.40;;;2.30;99.90;2.00;101909.00;;;;4958403;28;89028;-65
2022/03/15 04:14:00;;;;;;;4.73;4.23;;;2.00;99.90;2.00;101918.00;;;;4965325;28;89812;-65
2022/03/15 04:16:27;;;;;;;8.00;4.00;;;2.30;99.90;2.00;101932.00;;;;4956811;28;87978;-64
2022/03/15 04:18:53;;;;;;;8.43;3.30;;;2.30;99.90;1.90;101926.00;;;;4955807;28;100119;-64
2022/03/15 04:21:22;;;;;;;5.80;3.33;;;2.20;99.90;1.90;101928.00;;;;4955138;28;116582;-64
2022/03/15 04:23:48;;;;;;;4.97;3.37;;;2.20;99.90;1.90;101927.00;;;;4956624;28;88836;-64
2022/03/15 04:26:13;;;;;;;5.57;3.57;;;2.20;99.90;1.90;101930.00;;;;4956025;28;110214;-64
2022/03/15 04:28:39;;;;;;;6.10;3.37;;;2.20;99.90;1.90;101934.00;;;;4956019;28;108956;-65
2022/03/15 04:31:05;;;;;;;4.77;4.00;;;2.20;99.90;1.80;101925.00;;;;4955598;28;117171;-65
2022/03/15 04:33:30;;;;;;;5.90;4.60;;;2.10;99.90;1.80;101931.00;;;;4955370;28;116898;-65
2022/03/15 04:35:56;;;;;;;4.87;3.87;;;2.10;99.90;1.80;101924.00;;;;4954528;28;111718;-64
2022/03/15 04:38:22;;;;;;;5.37;3.97;;;2.00;99.90;1.80;101923.00;;;;4955958;28;95886;-64
2022/03/15 04:40:48;;;;;;;4.97;3.33;;;2.10;99.90;1.80;101928.00;;;;4955232;28;117922;-64
2022/03/15 04:43:13;;;;;;;6.77;3.77;;;2.00;99.90;1.70;101933.00;;;;4955924;28;88610;-65
2022/03/15 04:45:40;;;;;;;5.83;4.00;;;2.80;99.90;1.70;101925.00;;;;4955441;28;89636;-64
2022/03/15 04:48:06;;;;;;;5.13;3.43;;;2.00;99.90;1.70;101920.00;;;;4956211;28;87817;-64
2022/03/15 04:50:32;;;;;;;3.90;3.23;;;2.00;99.90;1.70;101910.00;;;;4954588;28;117495;-64
2022/03/15 04:52:57;;;;;;;5.93;3.87;;;2.00;99.90;1.70;101917.00;;;;4956037;28;88669;-64
2022/03/15 04:55:24;;;;;;;5.97;4.70;;;2.00;99.90;1.70;101910.00;;;;4955336;28;110325;-64
2022/03/15 04:57:49;;;;;;;6.33;4.77;;;3.10;99.90;1.70;101916.00;;;;4958185;28;87738;-64
2022/03/15 05:00:17;;;;;;;8.20;4.60;;;2.00;99.90;1.70;101911.00;;;;4955910;28;89270;-64
2022/03/15 05:02:44;;;;;;;6.13;4.53;;;2.00;99.90;1.70;101909.00;;;;4955661;28;88971;-65
2022/03/15 05:05:12;;;;;;;4.90;3.50;;;2.00;99.90;1.70;101908.00;;;;4952505;28;88297;-64
2022/03/15 05:07:39;;;;;;;8.73;3.93;;;2.00;99.90;1.70;101901.00;;;;4955714;28;87420;-64
2022/03/15 05:12:50;;;;;;;18.10;11.17;;;2.00;99.90;1.70;101900.00;;;;4965034;28;87892;-64
2022/03/15 05:15:16;;;;;;;9.97;4.90;;;2.00;99.90;1.60;101893.00;;;;4955247;28;88273;-65
2022/03/15 05:17:41;;;;;;;9.00;5.70;;;2.60;99.90;1.60;101887.00;;;;4955510;28;99713;-65
2022/03/15 05:20:09;;;;;;;6.37;4.67;;;1.90;99.90;1.60;101887.00;;;;4955519;28;88525;-64
2022/03/15 05:22:34;;;;;;;8.20;4.03;;;1.90;99.90;1.60;101887.00;;;;4956599;28;87923;-64
2022/03/15 05:25:00;;;;;;;8.70;4.90;;;1.90;99.90;1.60;101889.00;;;;4954951;28;99248;-64
2022/03/15 05:27:26;;;;;;;10.90;5.93;;;1.90;99.90;1.50;101890.00;;;;4954643;28;108958;-65
2022/03/15 05:29:53;;;;;;;7.47;4.37;;;1.80;99.90;1.50;101907.00;;;;4954274;28;117659;-64
2022/03/15 05:32:19;;;;;;;5.03;4.53;;;1.80;99.90;1.40;101889.00;;;;4953148;28;116916;-64
2022/03/15 05:34:45;;;;;;;8.80;5.57;;;1.80;99.90;1.40;101891.00;;;;4952779;28;104573;-64
2022/03/15 05:37:11;;;;;;;7.70;4.17;;;1.80;99.90;1.40;101892.00;;;;4952356;28;93361;-64
2022/03/15 05:39:37;;;;;;;6.47;4.40;;;1.70;99.90;1.40;101898.00;;;;4950326;28;116935;-64
2022/03/15 05:42:03;;;;;;;5.83;4.23;;;1.70;99.90;1.50;101889.00;;;;4952098;28;88614;-64
2022/03/15 05:44:29;;;;;;;4.00;3.40;;;1.70;99.90;1.50;101880.00;;;;4947022;28;87738;-64
2022/03/15 05:46:56;;;;;;;5.13;3.30;;;1.80;99.90;1.50;101889.00;;;;4959972;28;87917;-64
2022/03/15 05:49:21;;;;;;;11.17;5.43;;;1.70;99.90;1.60;101882.00;;;;4953869;28;89125;-65
2022/03/15 05:51:47;;;;;;;4.13;3.57;;;1.80;99.90;1.60;101882.00;;;;4955627;28;89531;-66
2022/03/15 05:54:13;;;;;;;6.20;4.77;;;2.00;99.90;1.70;101876.00;;;;4954402;28;109538;-65
2022/03/15 05:56:39;;;;;;;3.47;3.17;;;1.90;99.90;1.70;101879.00;;;;4953449;28;107381;-66
2022/03/15 05:59:06;;;;;;;6.40;4.13;;;2.00;99.90;1.80;101887.00;;;;4953573;28;87844;-65
2022/03/15 06:01:31;;;;;;;4.10;3.67;;;2.00;99.90;1.90;101879.00;;;;4955280;28;88350;-64
2022/03/15 06:03:58;;;;;;;7.57;3.93;;;2.10;99.90;1.90;101884.00;;;;4952882;28;110339;-65
2022/03/15 06:06:24;;;;;;;3.70;3.40;;;2.20;99.90;2.00;101882.00;;;;4950573;28;86982;-64
2022/03/15 06:08:50;;;;;;;8.83;5.00;;;2.30;99.90;2.10;101891.00;;;;4954812;28;88012;-65
2022/03/15 06:11:17;;;;;;;6.10;4.20;;;2.30;99.90;2.20;101884.00;;;;4954958;28;88710;-64
2022/03/15 06:13:43;;;;;;;13.90;4.80;;;2.40;99.90;2.30;101879.00;;;;4963879;28;89146;-64
2022/03/15 06:16:09;;;;;;;7.23;5.07;;;2.50;99.90;2.40;101881.00;;;;4954782;28;105879;-64
2022/03/15 06:18:35;;;;;;;5.60;4.13;;;2.60;99.90;2.50;101888.00;;;;4959316;28;118487;-64
2022/03/15 06:21:00;;;;;;;7.83;5.50;;;3.40;99.90;2.60;101890.00;;;;4957429;28;117509;-64
2022/03/15 06:23:26;;;;;;;6.87;4.77;;;2.80;99.90;2.60;101891.00;;;;4953318;28;109200;-64
2022/03/15 06:25:52;;;;;;;6.23;5.37;;;2.90;99.90;2.70;101898.00;;;;4953918;28;109566;-64
2022/03/15 06:28:18;;;;;;;11.03;5.33;;;2.80;99.90;2.80;101888.00;;;;4953927;28;88260;-64
2022/03/15 06:30:44;;;;;;;8.83;5.47;;;3.00;99.90;2.90;101887.00;;;;4952322;28;118091;-65
2022/03/15 06:33:09;;;;;;;7.17;5.13;;;3.10;99.90;2.90;101892.00;;;;4955556;28;87746;-64
2022/03/15 06:35:35;;;;;;;6.53;5.53;;;3.10;99.90;3.00;101896.00;;;;4953930;28;107730;-65
2022/03/15 06:38:01;;;;;;;9.03;6.37;;;3.20;99.90;3.10;101900.00;;;;4951629;28;118121;-64
2022/03/15 06:40:27;;;;;;;9.47;5.27;;;3.20;99.90;3.20;101892.00;;;;4954026;28;117779;-63
2022/03/15 06:42:54;;;;;;;10.43;6.50;;;3.40;99.90;3.30;101892.00;;;;4954369;28;87786;-63
2022/03/15 06:45:21;;;;;;;10.40;6.27;;;3.40;99.90;3.40;101896.00;;;;4954767;28;99168;-64
2022/03/15 06:47:47;;;;;;;7.23;4.30;;;3.60;99.90;3.50;101905.00;;;;4954712;28;87978;-64
2022/03/15 06:50:13;;;;;;;8.63;6.13;;;3.70;99.90;3.60;101902.00;;;;4953635;28;118181;-64
2022/03/15 06:52:41;;;;;;;8.37;4.73;;;3.80;99.90;3.70;101901.00;;;;4954498;28;87575;-64
2022/03/15 06:55:08;;;;;;;9.77;5.97;;;3.90;99.90;3.80;101896.00;;;;4935860;28;87016;-64
2022/03/15 06:57:34;;;;;;;12.17;6.40;;;4.00;99.90;4.00;101906.00;;;;4945254;28;88478;-65
2022/03/15 07:00:03;;;;;;;7.67;6.60;;;4.10;99.90;4.10;101902.00;;;;4955041;28;88140;-65
2022/03/15 07:02:29;;;;;;;7.93;5.60;;;4.20;99.90;4.20;101893.00;;;;4953849;28;102373;-64
2022/03/15 07:04:54;;;;;;;10.17;6.37;;;4.30;99.90;4.30;101906.00;;;;4943937;28;109866;-65
2022/03/15 07:07:20;;;;;;;9.07;5.53;;;4.40;99.90;4.40;101902.00;;;;4950602;28;116619;-64
2022/03/15 07:09:46;;;;;;;10.97;5.53;;;4.50;99.90;4.60;101892.00;;;;4955111;28;118012;-64
2022/03/15 07:12:12;;;;;;;9.90;6.43;;;5.40;99.90;4.70;101890.00;;;;4965362;28;87965;-65
2022/03/15 07:14:38;;;;;;;10.30;7.23;;;4.80;99.90;4.80;101885.00;;;;4959369;28;101161;-64
2022/03/15 07:17:04;;;;;;;8.03;7.03;;;5.00;99.90;5.00;101891.00;;;;4956942;28;87552;-65
2022/03/15 07:19:30;;;;;;;7.57;6.43;;;5.10;99.90;5.20;101893.00;;;;4955800;28;87910;-64
2022/03/15 07:21:55;;;;;;;8.03;5.37;;;5.30;99.90;5.30;101880.00;;;;4957730;28;87845;-65
2022/03/15 07:24:21;;;;;;;9.47;6.30;;;5.40;99.90;5.50;101883.00;;;;4957418;28;87634;-65
2022/03/15 07:26:47;;;;;;;5.97;4.93;;;5.60;99.90;5.60;101884.00;;;;4955776;28;116830;-65
2022/03/15 07:29:13;;;;;;;13.47;6.27;;;6.10;99.90;5.80;101889.00;;;;4956147;28;116147;-65
2022/03/15 07:31:39;;;;;;;6.40;4.73;;;6.30;99.90;6.00;101897.00;;;;4956762;28;87447;-65
2022/03/15 07:34:04;;;;;;;8.10;5.50;;;6.00;99.90;6.10;101884.00;;;;4956065;28;108516;-65
2022/03/15 07:36:30;;;;;;;7.33;5.17;;;6.20;99.90;6.30;101893.00;;;;4956158;28;116908;-65
2022/03/15 07:38:56;;;;;;;7.40;4.83;;;6.30;99.90;6.50;101894.00;;;;4954483;28;89491;-66
2022/03/15 07:41:23;;;;;;;10.47;4.83;;;6.70;99.90;6.60;101885.00;;;;4954702;28;109664;-66
2022/03/15 07:43:50;;;;;;;7.10;5.43;;;6.70;99.90;6.90;101877.00;;;;4957050;28;86929;-66
2022/03/15 07:46:16;;;;;;;7.03;5.33;;;7.40;99.90;7.10;101882.00;;;;4956039;28;113749;-66
2022/03/15 07:48:42;;;;;;;8.57;5.10;;;7.10;99.90;7.30;101887.00;;;;4953407;28;117324;-66
2022/03/15 07:51:07;;;;;;;13.77;6.07;;;7.40;99.90;7.50;101884.00;;;;4955817;28;104464;-66
2022/03/15 07:53:33;;;;;;;8.97;5.17;;;7.50;99.90;7.80;101889.00;;;;4953718;28;107415;-66
2022/03/15 07:56:01;;;;;;;7.17;5.63;;;7.80;99.90;8.00;101891.00;;;;4955609;28;116737;-65
2022/03/15 07:58:27;;;;;;;6.80;5.10;;;8.00;99.90;8.20;101889.00;;;;4956456;28;87736;-66
2022/03/15 08:00:57;;;;;;;10.70;4.77;;;8.20;99.90;8.40;101895.00;;;;4956563;28;92722;-66
2022/03/15 08:03:24;;;;;;;9.90;5.53;;;8.40;99.90;8.50;101894.00;;;;4956064;28;87736;-66
2022/03/15 08:05:50;;;;;;;11.43;5.70;;;8.60;99.90;8.70;101885.00;;;;4943889;28;88225;-65
2022/03/15 08:08:16;;;;;;;5.60;4.60;;;8.70;99.90;8.80;101882.00;;;;4956299;28;88147;-65
2022/03/15 08:10:43;;;;;;;4.97;4.13;;;8.90;99.90;8.90;101884.00;;;;4955377;28;110209;-65
2022/03/15 08:13:09;;;;;;;8.60;5.10;;;9.00;99.90;9.10;101885.00;;;;4961422;28;87630;-64
2022/03/15 08:15:35;;;;;;;7.40;4.00;;;9.10;99.90;9.20;101892.00;;;;4955020;28;109360;-63
2022/03/15 08:18:02;;;;;;;4.33;3.40;;;9.20;99.90;9.30;101880.00;;;;4956145;28;89151;-63
2022/03/15 08:20:38;;;;;;;6.07;4.17;;;9.30;99.90;9.50;101883.00;;;;4955287;28;87953;-63
2022/03/15 08:23:04;;;;;;;4.33;3.93;;;9.50;99.90;9.60;101883.00;;;;4955508;28;87716;-62
2022/03/15 08:25:29;;;;;;;5.77;3.40;;;10.00;99.90;9.80;101881.00;;;;4955435;28;116801;-62
2022/03/15 08:27:56;;;;;;;5.73;3.23;;;9.80;99.90;10.00;101885.00;;;;4955890;28;103023;-63
2022/03/15 08:30:23;;;;;;;2.87;2.67;;;10.00;99.90;10.20;101879.00;;;;4954820;28;87773;-63
2022/03/15 08:32:48;;;;;;;3.27;2.67;;;10.20;99.90;10.30;101873.00;;;;4957023;28;86997;-63
2022/03/15 08:35:14;;;;;;;6.23;3.13;;;10.40;99.90;10.40;101878.00;;;;4955127;28;118254;-62
2022/03/15 08:37:42;;;;;;;4.07;2.77;;;10.50;99.90;10.40;101870.00;;;;4956149;28;96059;-62
2022/03/15 08:40:11;;;;;;;2.83;2.30;;;10.50;99.90;10.50;101870.00;;;;4957390;28;88951;-63
2022/03/15 08:42:36;;;;;;;3.37;2.73;;;10.60;99.90;10.60;101869.00;;;;4969148;28;87621;-63
2022/03/15 08:45:03;;;;;;;2.77;1.60;;;10.70;99.90;10.70;101863.00;;;;4955194;28;88631;-63
2022/03/15 08:47:28;;;;;;;3.13;2.43;;;10.70;99.90;10.90;101865.00;;;;4954703;28;109251;-63
2022/03/15 08:49:55;;;;;;;3.17;1.90;;;10.90;99.90;11.00;101860.00;;;;4955308;28;97394;-63
2022/03/15 08:52:21;;;;;;;4.87;2.50;;;11.00;99.90;11.10;101855.00;;;;4954075;28;88091;-62
2022/03/15 08:54:47;;;;;;;3.57;2.57;;;11.10;99.90;11.30;101849.00;;;;4954885;28;88222;-63
2022/03/15 08:57:14;;;;;;;3.13;1.83;;;11.30;99.90;11.50;101853.00;;;;4956610;28;88229;-63
2022/03/15 08:59:40;;;;;;;4.53;2.40;;;11.40;99.90;11.70;101853.00;;;;4955131;28;87749;-63
2022/03/15 09:02:09;;;;;;;2.40;2.20;;;11.60;99.90;11.90;101853.00;;;;4955034;28;107287;-63
2022/03/15 09:04:34;;;;;;;3.90;2.37;;;11.80;99.90;12.10;101856.00;;;;4946841;28;89522;-63
2022/03/15 09:07:00;;;;;;;3.70;2.60;;;12.00;99.90;12.30;101851.00;;;;4948445;28;88871;-63
2022/03/15 09:09:27;;;;;;;3.13;2.40;;;12.20;99.90;12.40;101853.00;;;;4954262;28;110830;-62
2022/03/15 09:11:53;;;;;;;2.90;2.00;;;12.30;99.90;12.60;101851.00;;;;4960656;28;87540;-63
2022/03/15 09:14:18;;;;;;;3.80;2.37;;;12.40;99.90;12.70;101852.00;;;;4961261;28;88149;-63
2022/03/15 09:16:44;;;;;;;4.93;2.13;;;12.60;99.90;12.80;101852.00;;;;4953826;28;117008;-63
2022/03/15 09:19:11;;;;;;;3.10;2.77;;;12.70;99.90;12.90;101854.00;;;;4954492;28;111121;-62
2022/03/15 09:21:37;;;;;;;4.70;2.67;;;12.80;99.90;12.90;101841.00;;;;4955448;28;86960;-63
2022/03/15 09:24:04;;;;;;;3.27;2.60;;;12.80;99.90;12.90;101855.00;;;;4954909;28;89512;-62
2022/03/15 09:26:29;;;;;;;2.73;2.23;;;12.90;99.90;13.00;101853.00;;;;4954761;28;88980;-62
2022/03/15 09:28:56;;;;;;;5.53;3.13;;;13.00;99.90;13.10;101843.00;;;;4952024;28;110220;-63
2022/03/15 09:31:22;;;;;;;4.53;3.20;;;13.00;99.90;13.20;101845.00;;;;4954903;28;87975;-62
2022/03/15 09:33:47;;;;;;;4.17;2.67;;;13.10;99.90;13.20;101840.00;;;;4953379;28;118032;-62
2022/03/15 09:36:15;;;;;;;2.87;2.37;;;13.10;99.90;13.20;101847.00;;;;4955433;28;88308;-62
2022/03/15 09:38:42;;;;;;;3.77;2.83;;;13.20;99.90;13.20;101849.00;;;;4955384;28;87781;-63
2022/03/15 09:41:08;;;;;;;5.43;3.57;;;13.10;99.90;13.10;101846.00;;;;4966098;28;87826;-65
2022/03/15 09:43:42;;;;;;;5.50;3.00;;;13.10;99.90;13.20;101834.00;;;;4966725;28;88940;-63
2022/03/15 09:46:09;;;;;;;5.97;2.57;;;13.10;99.90;13.20;101831.00;;;;4955302;28;87264;-64
2022/03/15 09:48:35;;;;;;;10.00;4.33;;;13.10;99.90;13.20;101835.00;;;;4986052;28;88087;-63
2022/03/15 09:51:06;;;;;;;5.03;2.70;;;13.20;99.90;13.20;101831.00;;;;4954055;28;99713;-63
2022/03/15 09:53:37;;;;;;;4.03;2.50;;;13.20;99.90;13.30;101828.00;;;;4954045;28;89900;-63
2022/03/15 09:56:04;;;;;;;3.87;2.87;;;13.20;99.90;13.40;101827.00;;;;4954375;28;89336;-63
2022/03/15 09:58:30;;;;;;;5.93;3.40;;;13.20;99.90;13.30;101825.00;;;;4954139;28;101544;-63
2022/03/15 10:00:57;;;;;;;8.60;3.77;;;13.20;99.90;13.30;101818.00;;;;4954148;28;100550;-63
2022/03/15 10:03:24;;;;;;;7.60;2.90;;;13.20;99.90;13.30;101823.00;;;;4954224;28;88736;-63
2022/03/15 10:05:50;;;;;;;7.47;3.97;;;13.20;99.90;13.30;101819.00;;;;4942261;28;107089;-62
2022/03/15 10:08:17;;;;;;;6.07;3.90;;;13.20;99.90;13.40;101823.00;;;;4954802;28;87825;-63
2022/03/15 10:10:48;;;;;;;7.30;3.47;;;13.30;99.90;13.60;101817.00;;;;4955186;28;87053;-63
2022/03/15 10:13:14;;;;;;;6.63;3.73;;;13.40;99.90;13.80;101811.00;;;;4971466;28;88082;-64
2022/03/15 10:15:54;;;;;;;5.03;3.93;;;13.60;99.90;13.90;101809.00;;;;4975328;28;88195;-63
2022/03/15 10:18:20;;;;;;;5.47;3.60;;;13.70;99.30;13.90;101812.00;;;;4968365;28;88910;-62
2022/03/15 10:20:48;;;;;;;8.73;3.37;;;13.70;99.40;13.90;101805.00;;;;4954450;28;87597;-63
2022/03/15 10:23:16;;;;;;;6.23;3.60;;;13.80;98.80;13.90;101792.00;;;;4954971;28;89104;-63
2022/03/15 10:25:49;;;;;;;5.77;2.87;;;13.80;98.40;13.90;101789.00;;;;4955221;28;88744;-63
2022/03/15 10:28:16;;;;;;;8.37;3.00;;;13.80;95.20;13.80;101784.00;;;;4969568;28;87781;-63
2022/03/15 10:30:45;;;;;;;3.07;2.30;;;13.70;95.40;13.80;101786.00;;;;4954673;28;87887;-63
2022/03/15 10:33:12;;;;;;;2.90;2.10;;;13.70;95.70;13.90;101780.00;;;;4954384;28;88597;-63
2022/03/15 10:35:45;;;;;;;3.50;2.60;;;13.80;96.70;14.00;101773.00;;;;4953946;28;88906;-64
2022/03/15 10:38:12;;;;;;;4.13;2.47;;;13.80;95.60;14.00;101773.00;;;;4955050;28;87533;-65
2022/03/15 10:40:46;;;;;;;4.80;2.53;;;13.90;94.20;14.00;101785.00;;;;4954786;28;87769;-63
2022/03/15 10:43:16;;;;;;;4.23;2.70;;;13.90;93.30;14.10;101777.00;;;;4954071;28;90034;-63
2022/03/15 10:45:47;;;;;;;4.40;2.55;;;13.90;93.00;14.10;101776.00;;;;4957760;28;89846;-63
2022/03/15 10:48:32;;;;;;;5.43;3.35;;;14.00;92.60;14.20;101767.00;;;;4958416;28;87895;-65
2022/03/15 10:51:05;;;;;;;3.55;2.58;;;14.10;93.10;14.40;101760.00;;;;4958141;28;88038;-63
2022/03/15 10:53:47;;;;;;;5.75;2.80;;;14.20;93.10;14.70;101767.00;;;;4955879;28;87658;-63
2022/03/15 10:56:21;;;;;;;2.05;1.77;;;14.40;92.50;14.70;101765.00;;;;4957826;28;88588;-64